createdAt,value
2023-02-22T00:03:02.364Z,143.38
2023-02-22T00:06:09.910Z,167.85
2023-02-22T00:09:20.791Z,180.70
2023-02-22T00:12:29.433Z,173.79
2023-02-22T00:15:36.666Z,167.87
2023-02-22T00:18:43.576Z,144.84
2023-02-22T00:21:55.966Z,151.95
2023-02-22T00:25:01.850Z,229.52
2023-02-22T00:28:11.239Z,244.98
2023-02-22T00:31:17.806Z,217.93
2023-02-22T00:34:26.738Z,225.62
2023-02-22T00:37:32.871Z,224.04
2023-02-22T00:40:40.366Z,235.02
2023-02-22T00:43:49.056Z,247.62
2023-02-22T00:46:55.821Z,291.36
2023-02-22T00:50:01.784Z,270.73
2023-02-22T00:53:10.597Z,270.50
2023-02-22T00:56:16.657Z,279.12
2023-02-22T00:59:26.125Z,263.06
2023-02-22T01:02:31.975Z,255.31
2023-02-22T01:05:39.198Z,244.29
2023-02-22T01:08:48.217Z,231.80
2023-02-22T01:11:58.253Z,223.43
2023-02-22T01:15:10.528Z,220.25
2023-02-22T01:18:17.466Z,212.50
2023-02-22T01:21:23.653Z,204.83
2023-02-22T01:24:30.541Z,197.60
2023-02-22T01:27:36.664Z,193.65
2023-02-22T01:30:46.174Z,192.77
2023-02-22T01:33:51.929Z,188.58
2023-02-22T01:36:58.778Z,190.73
2023-02-22T01:40:05.016Z,190.70
2023-02-22T01:43:26.572Z,185.29
2023-02-22T01:46:35.007Z,180.53
2023-02-22T01:49:50.979Z,184.77
2023-02-22T01:52:57.030Z,189.69
2023-02-22T01:56:05.425Z,191.10
2023-02-22T01:59:15.785Z,194.33
2023-02-22T02:02:26.005Z,190.23
2023-02-22T02:05:36.083Z,187.35
2023-02-22T02:08:58.907Z,194.51
2023-02-22T02:12:08.082Z,196.29
2023-02-22T02:15:29.091Z,187.65
2023-02-22T02:18:38.944Z,182.43
2023-02-22T02:22:16.154Z,195.08
2023-02-22T02:26:07.086Z,198.28
2023-02-22T02:30:07.318Z,198.69
2023-02-22T02:33:30.368Z,201.75
2023-02-22T02:37:00.149Z,188.57
2023-02-22T02:40:23.886Z,192.82
2023-02-22T02:43:42.294Z,196.03
2023-02-22T02:46:59.399Z,198.33
2023-02-22T02:50:16.460Z,199.95
2023-02-22T02:53:32.681Z,207.73
2023-02-22T02:56:38.767Z,194.54
2023-02-22T02:59:46.526Z,200.28
2023-02-22T03:03:13.944Z,210.40
2023-02-22T03:07:06.612Z,220.44
2023-02-22T03:10:41.505Z,207.45
2023-02-22T03:14:04.602Z,221.53
2023-02-22T03:17:30.385Z,222.42
2023-02-22T03:20:51.224Z,200.37
2023-02-22T03:24:12.840Z,209.09
2023-02-22T03:27:33.320Z,201.02
2023-02-22T03:30:50.226Z,194.29
2023-02-22T03:34:08.946Z,190.68
2023-02-22T03:37:23.384Z,204.19
2023-02-22T03:40:39.843Z,199.40
2023-02-22T03:43:54.702Z,188.97
2023-02-22T03:47:11.952Z,183.66
2023-02-22T03:50:26.452Z,183.61
2023-02-22T03:53:38.287Z,191.29
2023-02-22T03:56:57.420Z,193.69
2023-02-22T04:00:05.894Z,186.25
2023-02-22T04:03:19.000Z,183.48
2023-02-22T04:06:25.880Z,186.90
2023-02-22T04:09:32.878Z,199.37
2023-02-22T04:12:42.604Z,201.10
2023-02-22T04:15:48.531Z,203.59
2023-02-22T04:18:55.368Z,197.27
2023-02-22T04:22:02.319Z,175.67
2023-02-22T04:25:13.534Z,153.94
2023-02-22T04:28:22.487Z,166.24
2023-02-22T04:31:47.722Z,187.30
2023-02-22T04:34:57.385Z,202.70
2023-02-22T04:38:04.591Z,212.55
2023-02-22T04:41:11.493Z,217.81
2023-02-22T04:44:20.824Z,226.52
2023-02-22T04:47:26.831Z,232.21
2023-02-22T04:50:33.898Z,233.28
2023-02-22T04:53:41.661Z,233.98
2023-02-22T04:56:48.479Z,219.11
2023-02-22T04:59:57.791Z,215.75
2023-02-22T05:03:05.198Z,223.42
2023-02-22T05:06:12.559Z,213.04
2023-02-22T05:09:19.242Z,209.56
2023-02-22T05:12:25.213Z,205.38
2023-02-22T05:15:34.735Z,203.53
2023-02-22T05:18:40.610Z,218.73
2023-02-22T05:21:47.105Z,213.40
2023-02-22T05:24:53.083Z,213.39
2023-02-22T05:28:04.057Z,220.90
2023-02-22T05:31:13.843Z,230.48
2023-02-22T05:34:24.114Z,242.92
2023-02-22T05:37:29.902Z,251.82
2023-02-22T05:40:37.242Z,259.05
2023-02-22T05:43:44.490Z,246.70
2023-02-22T05:46:53.940Z,277.99
2023-02-22T05:49:59.782Z,308.24
2023-02-22T05:53:06.390Z,312.02
2023-02-22T05:56:12.721Z,319.55
2023-02-22T05:59:19.278Z,341.46
2023-02-22T06:02:27.814Z,317.85
2023-02-22T06:05:35.236Z,333.16
2023-02-22T06:08:41.027Z,354.62
2023-02-22T06:11:47.676Z,334.35
2023-02-22T06:14:53.555Z,339.37
2023-02-22T06:18:04.149Z,342.52
2023-02-22T06:21:12.100Z,356.48
2023-02-22T06:24:18.812Z,368.47
2023-02-22T06:27:24.590Z,358.29
2023-02-22T06:30:32.271Z,367.56
2023-02-22T06:33:40.708Z,391.62
2023-02-22T06:36:49.901Z,404.48
2023-02-22T06:39:55.721Z,410.28
2023-02-22T06:43:02.715Z,421.65
2023-02-22T06:46:12.851Z,443.63
2023-02-22T06:49:23.245Z,447.35
2023-02-22T06:52:29.153Z,456.43
2023-02-22T06:55:37.999Z,466.94
2023-02-22T06:58:43.817Z,464.42
2023-02-22T07:01:50.368Z,480.01
2023-02-22T07:04:58.757Z,496.95
2023-02-22T07:08:08.769Z,496.79
2023-02-22T07:11:14.899Z,514.43
2023-02-22T07:14:22.769Z,535.87
2023-02-22T07:17:28.653Z,565.91
2023-02-22T07:20:38.178Z,613.42
2023-02-22T07:23:44.024Z,592.59
2023-02-22T07:26:50.631Z,581.40
2023-02-22T07:29:56.455Z,599.17
2023-02-22T07:33:06.323Z,701.06
2023-02-22T07:36:18.007Z,677.99
2023-02-22T07:39:24.532Z,649.42
2023-02-22T07:42:30.372Z,638.20
2023-02-22T07:45:39.128Z,669.19
2023-02-22T07:48:46.275Z,721.74
2023-02-22T07:51:55.473Z,606.48
2023-02-22T07:55:01.561Z,549.28
2023-02-22T07:58:12.198Z,625.43
2023-02-22T08:01:18.491Z,683.72
2023-02-22T08:04:25.219Z,761.69
2023-02-22T08:07:33.530Z,800.24
2023-02-22T08:10:40.151Z,825.72
2023-02-22T08:13:45.942Z,757.65
2023-02-22T08:16:52.576Z,762.78
2023-02-22T08:19:58.715Z,674.52
2023-02-22T08:23:09.226Z,800.59
2023-02-22T08:26:18.718Z,844.44
2023-02-22T08:29:33.474Z,847.20
2023-02-22T08:32:39.484Z,825.07
2023-02-22T08:35:46.427Z,820.01
2023-02-22T08:38:55.856Z,851.81
2023-02-22T08:42:02.466Z,857.82
2023-02-22T08:45:10.038Z,811.66
2023-02-22T08:48:17.254Z,750.72
2023-02-22T08:51:23.741Z,650.24
2023-02-22T08:54:32.890Z,644.85
2023-02-22T08:57:38.688Z,640.67
2023-02-22T09:00:45.884Z,567.87
2023-02-22T09:03:52.477Z,524.61
2023-02-22T09:06:59.158Z,494.83
2023-02-22T09:10:08.643Z,475.51
2023-02-22T09:13:16.009Z,478.76
2023-02-22T09:16:22.254Z,433.19
2023-02-22T09:19:28.880Z,388.83
2023-02-22T09:22:34.638Z,325.63
2023-02-22T09:25:44.082Z,240.95
2023-02-22T09:28:50.068Z,225.75
2023-02-22T09:31:59.951Z,200.82
2023-02-22T09:35:08.783Z,160.02
2023-02-22T09:38:22.971Z,119.49
2023-02-22T09:41:46.367Z,113.63
2023-02-22T09:45:04.273Z,114.98
2023-02-22T09:48:21.759Z,139.31
2023-02-22T09:51:41.529Z,102.45
2023-02-22T09:54:55.590Z,87.30
2023-02-22T09:58:22.550Z,97.67
2023-02-22T10:01:36.728Z,102.31
2023-02-22T10:04:52.870Z,112.19
2023-02-22T10:08:06.162Z,140.40
2023-02-22T10:11:39.205Z,136.98
2023-02-22T10:15:26.928Z,133.64
2023-02-22T10:19:15.022Z,135.60
2023-02-22T10:22:47.909Z,121.53
2023-02-22T10:26:17.131Z,363.85
2023-02-22T10:29:35.716Z,145.53
2023-02-22T10:32:50.529Z,143.99
2023-02-22T10:35:59.172Z,127.43
2023-02-22T10:39:27.213Z,100.29
2023-02-22T10:42:33.422Z,77.46
2023-02-22T10:45:41.046Z,68.01
2023-02-22T10:48:57.547Z,48.88
2023-02-22T10:52:09.399Z,102.00
2023-02-22T10:55:19.364Z,495.90
2023-02-22T10:58:26.193Z,61.15
2023-02-22T11:01:42.469Z,43.69
2023-02-22T11:04:55.925Z,51.52
2023-02-22T11:08:28.260Z,53.05
2023-02-22T11:11:35.991Z,48.04
2023-02-22T11:14:43.270Z,63.80
2023-02-22T11:17:55.335Z,63.77
2023-02-22T11:21:18.794Z,33.26
2023-02-22T11:24:43.668Z,34.56
2023-02-22T11:28:00.163Z,34.04
2023-02-22T11:31:20.304Z,40.14
2023-02-22T11:34:35.149Z,39.81
2023-02-22T11:37:44.701Z,38.08
2023-02-22T11:41:08.187Z,41.05
2023-02-22T11:44:27.866Z,37.28
2023-02-22T11:47:33.832Z,42.44
2023-02-22T11:51:05.582Z,45.96
2023-02-22T11:54:57.229Z,49.59
2023-02-22T11:58:29.755Z,64.45
2023-02-22T12:01:55.323Z,49.53
2023-02-22T12:05:26.589Z,40.48
2023-02-22T12:08:55.672Z,43.85
2023-02-22T12:12:22.697Z,75.79
2023-02-22T12:15:42.953Z,99.61
2023-02-22T12:19:22.520Z,147.11
2023-02-22T12:22:38.203Z,69.02
2023-02-22T12:26:00.543Z,175.85
2023-02-22T12:29:20.788Z,133.77
2023-02-22T12:32:41.873Z,54.78
2023-02-22T12:35:58.353Z,64.09
2023-02-22T12:39:51.771Z,56.95
2023-02-22T12:43:16.851Z,64.79
2023-02-22T12:46:37.234Z,362.87
2023-02-22T12:49:54.962Z,480.15
2023-02-22T12:53:16.002Z,713.23
2023-02-22T12:56:34.608Z,308.59
2023-02-22T12:59:52.496Z,90.04
2023-02-22T13:03:20.824Z,77.60
2023-02-22T13:07:00.719Z,65.33
2023-02-22T13:10:36.492Z,86.63
2023-02-22T13:14:02.227Z,79.05
2023-02-22T13:17:28.234Z,71.23
2023-02-22T13:20:48.648Z,69.54
2023-02-22T13:24:06.456Z,69.30
2023-02-22T13:27:26.095Z,69.60
2023-02-22T13:30:45.626Z,75.54
2023-02-22T13:34:24.930Z,86.63
2023-02-22T13:38:18.201Z,82.57
2023-02-22T13:41:59.678Z,80.65
2023-02-22T13:46:01.511Z,80.04
2023-02-22T13:49:50.662Z,79.70
2023-02-22T13:53:02.780Z,78.15
2023-02-22T13:56:12.501Z,77.01
2023-02-22T13:59:35.760Z,78.84
2023-02-22T14:03:06.934Z,79.79
2023-02-22T14:06:46.297Z,82.45
2023-02-22T14:09:56.306Z,107.07
2023-02-22T14:13:11.012Z,549.74
2023-02-22T14:16:28.116Z,263.14
2023-02-22T14:19:34.159Z,91.34
2023-02-22T14:22:40.828Z,90.29
2023-02-22T14:25:47.869Z,85.62
2023-02-22T14:29:02.884Z,88.16
2023-02-22T14:32:15.409Z,91.14
2023-02-22T14:35:31.537Z,98.61
2023-02-22T14:38:49.917Z,102.52
2023-02-22T14:42:09.066Z,113.60
2023-02-22T14:45:30.131Z,100.19
2023-02-22T14:48:43.255Z,96.32
2023-02-22T14:52:03.922Z,98.14
2023-02-22T14:55:24.440Z,101.14
2023-02-22T14:58:42.855Z,108.26
2023-02-22T15:02:09.628Z,112.52
2023-02-22T15:05:22.704Z,101.63
2023-02-22T15:08:29.416Z,98.89
2023-02-22T15:11:36.254Z,116.45
2023-02-22T15:14:47.798Z,118.30
2023-02-22T15:18:01.496Z,112.65
2023-02-22T15:21:16.593Z,108.86
2023-02-22T15:24:28.557Z,106.31
2023-02-22T15:27:37.485Z,109.17
2023-02-22T15:30:43.439Z,113.35
2023-02-22T15:33:53.168Z,114.40
2023-02-22T15:37:08.034Z,121.57
2023-02-22T15:40:21.041Z,134.07
2023-02-22T15:43:29.126Z,120.99
2023-02-22T15:46:37.551Z,129.40
2023-02-22T15:49:46.117Z,128.51
2023-02-22T15:53:00.831Z,134.62
2023-02-22T15:56:15.123Z,135.87
2023-02-22T15:59:29.041Z,140.24
2023-02-22T16:02:42.485Z,178.40
2023-02-22T16:05:58.249Z,145.40
2023-02-22T16:09:12.594Z,156.20
2023-02-22T16:12:30.337Z,179.96
2023-02-22T16:15:37.533Z,375.41
2023-02-22T16:18:44.252Z,179.93
2023-02-22T16:22:03.375Z,165.66
2023-02-22T16:25:29.163Z,173.98
2023-02-22T16:28:36.062Z,204.66
2023-02-22T16:31:43.811Z,267.15
2023-02-22T16:34:49.701Z,385.58
2023-02-22T16:38:03.218Z,374.54
2023-02-22T16:41:10.754Z,411.18
2023-02-22T16:44:17.724Z,349.80
2023-02-22T16:47:24.322Z,354.01
2023-02-22T16:50:30.835Z,397.02
2023-02-22T16:53:40.951Z,498.32
2023-02-22T16:56:47.610Z,572.77
2023-02-22T16:59:55.668Z,598.69
2023-02-22T17:03:04.033Z,594.40
2023-02-22T17:06:11.807Z,766.24
2023-02-22T17:09:22.022Z,837.31
2023-02-22T17:12:28.660Z,634.41
2023-02-22T17:15:38.630Z,641.23
2023-02-22T17:18:46.134Z,605.78
2023-02-22T17:21:53.843Z,555.85
2023-02-22T17:25:02.180Z,506.92
2023-02-22T17:28:10.869Z,456.47
2023-02-22T17:31:27.206Z,434.44
2023-02-22T17:34:33.816Z,446.89
2023-02-22T17:37:40.149Z,489.00
2023-02-22T17:40:52.087Z,537.14
2023-02-22T17:43:58.255Z,626.29
2023-02-22T17:47:04.879Z,626.90
2023-02-22T17:50:12.592Z,631.69
2023-02-22T17:53:22.836Z,701.29
2023-02-22T17:56:31.496Z,590.93
2023-02-22T17:59:40.649Z,1060.14
2023-02-22T18:02:47.205Z,599.37
2023-02-22T18:05:57.815Z,482.86
2023-02-22T18:09:10.894Z,489.30
2023-02-22T18:12:20.953Z,511.36
2023-02-22T18:15:28.380Z,492.33
2023-02-22T18:18:35.779Z,528.97
2023-02-22T18:21:41.724Z,564.98
2023-02-22T18:24:48.265Z,561.27
2023-02-22T18:27:59.386Z,572.75
2023-02-22T18:31:13.570Z,594.72
2023-02-22T18:34:19.411Z,690.73
2023-02-22T18:37:28.340Z,720.19
2023-02-22T18:40:34.214Z,750.16
2023-02-22T18:43:44.048Z,679.20
2023-02-22T18:46:49.797Z,628.36
2023-02-22T18:49:57.021Z,634.39
2023-02-22T18:53:05.876Z,638.19
2023-02-22T18:56:17.048Z,681.51
2023-02-22T18:59:26.007Z,699.53
2023-02-22T19:02:32.555Z,712.80
2023-02-22T19:05:39.116Z,702.84
2023-02-22T19:08:48.851Z,700.23
2023-02-22T19:11:54.862Z,683.36
2023-02-22T19:15:04.992Z,675.08
2023-02-22T19:18:10.931Z,701.59
2023-02-22T19:21:18.551Z,616.89
2023-02-22T19:24:24.567Z,749.71
2023-02-22T19:27:34.233Z,866.92
2023-02-22T19:30:42.922Z,809.99
2023-02-22T19:33:54.050Z,750.66
2023-02-22T19:37:00.829Z,660.88
2023-02-22T19:40:11.881Z,666.68
2023-02-22T19:43:17.646Z,691.42
2023-02-22T19:46:28.405Z,612.51
2023-02-22T19:49:35.467Z,657.85
2023-02-22T19:52:42.234Z,618.87
2023-02-22T19:55:48.043Z,576.73
2023-02-22T19:58:54.761Z,551.39
2023-02-22T20:02:03.267Z,543.97
2023-02-22T20:05:12.480Z,516.36
2023-02-22T20:08:22.209Z,491.38
2023-02-22T20:11:29.672Z,491.88
2023-02-22T20:14:35.963Z,508.27
2023-02-22T20:17:50.518Z,531.91
2023-02-22T20:20:56.671Z,543.50
2023-02-22T20:24:07.101Z,529.93
2023-02-22T20:27:13.762Z,531.33
2023-02-22T20:30:20.657Z,582.58
2023-02-22T20:33:29.962Z,661.81
2023-02-22T20:36:39.291Z,698.58
2023-02-22T20:39:45.543Z,720.09
2023-02-22T20:42:54.396Z,743.42
2023-02-22T20:46:04.206Z,715.66
2023-02-22T20:49:18.472Z,797.28
2023-02-22T20:52:24.521Z,753.06
2023-02-22T20:55:31.925Z,724.80
2023-02-22T20:58:37.895Z,695.75
2023-02-22T21:01:53.271Z,659.17
2023-02-22T21:05:02.050Z,610.91
2023-02-22T21:08:12.602Z,549.97
2023-02-22T21:11:24.074Z,614.92
2023-02-22T21:14:32.642Z,657.04
2023-02-22T21:17:39.010Z,576.83
2023-02-22T21:20:51.260Z,564.98
2023-02-22T21:24:02.032Z,595.44
2023-02-22T21:27:12.475Z,606.85
2023-02-22T21:30:27.601Z,599.19
2023-02-22T21:33:34.990Z,586.82
2023-02-22T21:36:43.460Z,561.53
2023-02-22T21:39:54.342Z,606.71
2023-02-22T21:43:04.032Z,614.91
2023-02-22T21:46:13.689Z,578.08
2023-02-22T21:49:22.857Z,551.29
2023-02-22T21:52:32.698Z,711.73
2023-02-22T21:55:38.886Z,789.08
2023-02-22T21:58:46.609Z,888.60
2023-02-22T22:01:56.587Z,690.85
2023-02-22T22:05:03.380Z,725.48
2023-02-22T22:08:16.985Z,671.34
2023-02-22T22:11:25.224Z,681.55
2023-02-22T22:14:32.416Z,891.40
2023-02-22T22:17:39.398Z,535.75
2023-02-22T22:20:45.424Z,518.66
2023-02-22T22:23:57.547Z,573.80
2023-02-22T22:27:06.616Z,564.74
2023-02-22T22:30:17.005Z,534.45
2023-02-22T22:33:22.986Z,525.09
2023-02-22T22:36:30.804Z,575.47
2023-02-22T22:39:41.297Z,802.42
2023-02-22T22:42:49.437Z,966.53
2023-02-22T22:45:55.393Z,655.02
2023-02-22T22:49:01.967Z,904.12
2023-02-22T22:52:08.287Z,555.87
2023-02-22T22:55:19.107Z,566.39
2023-02-22T22:58:25.097Z,593.72
2023-02-22T23:01:34.622Z,561.76
2023-02-22T23:04:40.727Z,577.22
2023-02-22T23:07:47.469Z,611.46
2023-02-22T23:10:55.809Z,577.41
2023-02-22T23:14:05.747Z,536.10
2023-02-22T23:17:15.377Z,449.44
2023-02-22T23:20:22.846Z,383.12
2023-02-22T23:23:29.546Z,348.44
2023-02-22T23:26:39.263Z,338.51
2023-02-22T23:29:47.450Z,334.02
2023-02-22T23:32:54.100Z,330.69
2023-02-22T23:35:59.915Z,311.35
2023-02-22T23:39:06.726Z,308.65
2023-02-22T23:42:16.925Z,315.31
2023-02-22T23:45:26.114Z,326.33
2023-02-22T23:48:33.998Z,321.82
2023-02-22T23:51:44.698Z,321.73
2023-02-22T23:54:53.991Z,318.06
2023-02-22T23:58:04.390Z,321.42
